.
WxDataArchive / Data Records for 2011-05-24
2011-05-23 May 2011 2011-05-25

Data Records for Tuesday, 24 May 2011

Time	Temp	Chill	HIndex	Humid	Dewpt	 Wind 	HiWind	WindDir	Rain 	Barom 
-----	----	-----	------	-----	-----	------	------	-------	-----	----- 
00:00	65.2	65.2	65.2	81	59.2	0	2	248	0.00	29.710 
00:05	65.0	65.0	65.0	81	59.0	0	2	248	0.00	29.710 
00:10	65.0	65.0	65.0	82	59.4	0	1	248	0.00	29.710 
00:15	65.0	65.0	65.0	82	59.4	0	1	248	0.00	29.712 
00:20	64.8	64.8	64.8	82	59.2	0	1	248	0.00	29.712 
00:25	64.8	64.8	64.8	82	59.2	0	2	248	0.00	29.712 
00:30	64.8	64.8	64.8	83	59.5	0	1	248	0.00	29.717 
00:35	64.8	64.8	64.8	83	59.5	0	2	248	0.00	29.717 
00:40	64.8	64.8	64.8	83	59.5	0	1	248	0.00	29.717 
00:45	64.8	64.8	64.8	83	59.5	0	2	248	0.00	29.721 
00:50	64.7	64.7	64.7	83	59.4	0	1	248	0.00	29.721 
00:55	64.8	64.8	64.8	83	59.5	1	3	248	0.00	29.721 
01:00	64.7	64.7	64.7	83	59.4	1	3	248	0.00	29.731 
01:05	64.7	64.7	64.7	84	59.7	1	3	248	0.00	29.731 
01:10	64.7	64.7	64.7	84	59.7	1	3	248	0.00	29.731 
01:15	64.5	64.5	64.5	85	59.9	1	4	248	0.00	29.728 
01:20	64.3	64.3	64.3	85	59.7	1	4	248	0.00	29.728 
01:25	64.3	64.3	64.3	86	60.0	1	3	248	0.00	29.728 
01:30	64.2	64.2	64.2	86	59.9	1	3	248	0.00	29.730 
01:35	64.2	64.2	64.2	87	60.2	1	4	248	0.00	29.730 
01:40	64.2	64.2	64.2	87	60.2	1	2	248	0.00	29.730 
01:45	64.2	64.2	64.2	87	60.2	1	3	248	0.00	29.724 
01:50	64.2	64.2	64.2	87	60.2	1	3	248	0.00	29.724 
01:55	64.2	64.2	64.2	87	60.2	0	2	248	0.00	29.724 
02:00	64.2	64.2	64.2	87	60.2	0	2	248	0.00	29.718 
02:05	64.0	64.0	64.0	88	60.4	0	2	248	0.00	29.718 
02:10	64.0	64.0	64.0	88	60.4	0	1	248	0.00	29.718 
02:15	63.9	63.9	63.9	88	60.3	0	1	248	0.00	29.714 
02:20	63.9	63.9	63.9	88	60.3	0	1	248	0.00	29.714 
02:25	63.7	63.7	63.7	88	60.1	0	1	248	0.00	29.714 
02:30	63.5	63.5	63.5	89	60.2	0	1	248	0.00	29.708 
02:35	63.5	63.5	63.5	89	60.2	0	0	---	0.00	29.708 
02:40	63.4	63.4	63.4	89	60.1	0	2	248	0.00	29.708 
02:45	63.4	63.4	63.4	89	60.1	0	2	248	0.00	29.716 
02:50	63.4	63.4	63.4	89	60.1	0	2	248	0.00	29.716 
02:55	63.4	63.4	63.4	89	60.1	0	1	248	0.00	29.716 
03:00	63.4	63.4	63.4	89	60.1	0	2	248	0.00	29.719 
03:05	63.5	63.5	63.5	89	60.2	0	2	248	0.00	29.719 
03:10	63.5	63.5	63.5	88	59.9	0	3	248	0.00	29.719 
03:15	63.4	63.4	63.4	88	59.8	1	3	248	0.00	29.721 
03:20	63.4	63.4	63.4	87	59.5	0	1	248	0.00	29.721 
03:25	63.4	63.4	63.4	87	59.5	0	1	248	0.00	29.721 
03:30	63.2	63.2	63.2	87	59.3	0	2	248	0.00	29.719 
03:35	63.2	63.2	63.2	87	59.3	0	1	248	0.00	29.719 
03:40	63.1	63.1	63.1	88	59.5	0	1	248	0.00	29.719 
03:45	62.9	62.9	62.9	88	59.3	0	0	---	0.00	29.724 
03:50	62.7	62.7	62.7	88	59.1	0	1	248	0.00	29.724 
03:55	62.6	62.6	62.6	88	59.0	0	1	248	0.00	29.724 
04:00	62.6	62.6	62.6	88	59.0	0	2	248	0.00	29.720 
04:05	62.4	62.4	62.4	89	59.1	0	1	248	0.00	29.720 
04:10	62.3	62.3	62.3	89	59.0	0	1	248	0.00	29.720 
04:15	62.3	62.3	62.3	89	59.0	0	1	248	0.00	29.733 
04:20	62.1	62.1	62.1	89	58.8	0	1	248	0.00	29.733 
04:25	62.1	62.1	62.1	90	59.1	0	1	248	0.00	29.733 
04:30	62.0	62.0	62.0	90	59.0	0	1	248	0.00	29.738 
04:35	62.0	62.0	62.0	90	59.0	0	1	248	0.00	29.738 
04:40	61.8	61.8	61.8	90	58.8	0	1	248	0.00	29.738 
04:45	61.8	61.8	61.8	90	58.8	0	1	248	0.00	29.742 
04:50	61.8	61.8	61.8	91	59.1	0	1	248	0.00	29.742 
04:55	61.8	61.8	61.8	91	59.1	0	1	248	0.00	29.742 
05:00	61.6	61.6	61.6	91	58.9	0	1	248	0.00	29.747 
05:05	61.6	61.6	61.6	91	58.9	0	1	248	0.00	29.747 
05:10	61.6	61.6	61.6	91	58.9	0	0	---	0.00	29.747 
05:15	61.5	61.5	61.5	91	58.8	0	1	248	0.00	29.759 
05:20	61.5	61.5	61.5	91	58.8	0	1	248	0.00	29.759 
05:25	61.5	61.5	61.5	91	58.8	0	0	---	0.00	29.759 
05:30	61.3	61.3	61.3	91	58.6	0	0	---	0.00	29.771 
05:35	61.3	61.3	61.3	92	59.0	0	0	---	0.00	29.771 
05:40	61.2	61.2	61.2	92	58.9	0	0	---	0.00	29.771 
05:45	61.2	61.2	61.2	92	58.9	0	0	---	0.00	29.776 
05:50	61.0	61.0	61.0	92	58.7	0	1	248	0.00	29.776 
05:55	61.0	61.0	61.0	92	58.7	0	1	248	0.00	29.776 
06:00	60.9	60.9	60.9	92	58.6	0	0	---	0.00	29.778 
06:05	60.9	60.9	60.9	92	58.6	0	1	248	0.00	29.778 
06:10	60.9	60.9	60.9	92	58.6	0	1	248	0.00	29.778 
06:15	61.0	61.0	61.0	93	59.0	0	2	248	0.00	29.779 
06:20	61.0	61.0	61.0	93	59.0	0	2	248	0.00	29.779 
06:25	61.0	61.0	61.0	93	59.0	0	1	248	0.00	29.779 
06:30	60.9	60.9	60.9	93	58.9	0	1	248	0.00	29.785 
06:35	60.9	60.9	60.9	93	58.9	0	1	248	0.00	29.785 
06:40	60.9	60.9	60.9	93	58.9	0	1	248	0.00	29.785 
06:45	60.7	60.7	60.7	93	58.7	0	1	248	0.00	29.790 
06:50	60.9	60.9	60.9	93	58.9	0	1	248	0.00	29.790 
06:55	60.9	60.9	60.9	93	58.9	0	2	248	0.00	29.790 
07:00	61.0	61.0	61.0	93	59.0	0	2	248	0.00	29.791 
07:05	61.0	61.0	61.0	93	59.0	0	1	248	0.00	29.791 
07:10	61.2	61.2	61.2	93	59.2	0	1	248	0.00	29.791 
07:15	61.3	61.3	61.3	93	59.3	0	2	248	0.00	29.793 
07:20	61.5	61.5	61.5	93	59.5	0	1	248	0.00	29.793 
07:25	61.6	61.6	61.6	93	59.6	0	2	248	0.00	29.793 
07:30	61.8	61.8	61.8	93	59.8	0	2	248	0.00	29.804 
07:35	62.1	62.1	62.1	92	59.7	0	1	248	0.00	29.804 
07:40	62.3	62.3	62.3	92	59.9	0	3	248	0.00	29.804 
07:45	62.4	62.4	62.4	92	60.0	1	3	248	0.00	29.807 
07:50	62.7	62.7	62.7	92	60.3	0	2	248	0.00	29.807 
07:55	63.1	63.1	63.1	91	60.4	0	2	248	0.00	29.807 
08:00	63.4	63.4	63.4	91	60.7	0	2	248	0.00	29.807 
08:05	63.7	63.7	63.7	90	60.7	0	2	248	0.00	29.807 
08:10	64.2	64.2	64.2	90	61.2	0	1	248	0.00	29.807 
08:15	64.5	64.5	64.5	89	61.2	0	1	248	0.00	29.808 
08:20	64.8	64.8	64.8	88	61.2	0	2	248	0.00	29.808 
08:25	65.2	65.2	65.2	87	61.2	0	2	248	0.00	29.808 
08:30	65.3	65.3	65.3	86	61.0	0	1	248	0.00	29.807 
08:35	65.3	65.3	65.3	85	60.7	1	3	248	0.00	29.807 
08:40	65.5	65.5	65.5	85	60.9	1	3	248	0.00	29.807 
08:45	65.8	65.8	65.8	85	61.2	1	2	248	0.00	29.812 
08:50	66.0	66.0	66.0	84	61.0	1	2	248	0.00	29.812 
08:55	66.1	66.1	66.1	84	61.1	0	1	248	0.00	29.812 
09:00	66.4	66.4	66.4	84	61.4	0	1	248	0.00	29.818 
09:05	66.8	66.8	66.8	84	61.8	0	2	248	0.00	29.818 
09:10	66.8	66.8	66.8	82	61.1	0	1	248	0.00	29.818 
09:15	66.9	66.9	66.9	82	61.2	0	1	248	0.00	29.816 
09:20	67.1	67.1	67.1	81	61.1	1	2	248	0.00	29.816 
09:25	67.3	67.3	67.3	82	61.6	0	1	248	0.00	29.816 
09:30	67.3	67.3	67.3	81	61.3	0	2	248	0.00	29.819 
09:35	67.6	67.6	67.6	82	61.9	0	1	248	0.00	29.819 
09:40	67.8	67.8	67.8	82	62.1	0	2	248	0.00	29.819 
09:45	67.6	67.6	67.6	81	61.6	0	3	248	0.00	29.826 
09:50	67.9	67.9	67.9	82	62.2	0	2	248	0.00	29.826 
09:55	67.9	67.9	67.9	80	61.5	1	3	248	0.00	29.826 
10:00	67.9	67.9	67.9	81	61.8	0	1	248	0.00	29.826 
10:05	68.4	68.4	68.4	81	62.3	1	3	270	0.00	29.826 
10:10	68.9	68.9	68.9	79	62.1	0	1	270	0.00	29.826 
10:15	69.8	69.8	69.8	76	61.9	0	2	270	0.00	29.831 
10:20	69.4	69.4	69.4	75	61.1	1	3	270	0.00	29.831 
10:25	69.1	69.1	69.1	77	61.6	1	3	315	0.00	29.831 
10:30	69.4	69.4	69.4	77	61.9	0	2	315	0.00	29.831 
10:35	69.8	69.8	69.8	77	62.3	0	2	315	0.00	29.831 
10:40	70.1	70.1	70.1	75	61.8	1	3	315	0.00	29.831 
10:45	70.1	70.1	70.1	76	62.2	1	3	315	0.00	29.831 
10:50	70.6	70.6	70.6	76	62.7	0	2	315	0.00	29.831 
10:55	70.9	70.9	70.9	74	62.2	1	2	315	0.00	29.831 
11:00	71.1	71.1	71.1	74	62.4	1	3	315	0.00	29.828 
11:05	71.3	71.3	71.3	73	62.2	1	3	315	0.00	29.828 
11:10	71.3	71.3	71.3	72	61.8	0	3	315	0.00	29.828 
11:15	71.8	71.8	71.8	73	62.7	0	2	315	0.00	29.830 
11:20	72.1	72.1	72.1	71	62.2	1	3	338	0.00	29.830 
11:25	72.3	72.3	72.3	68	61.1	1	2	315	0.00	29.830 
11:30	73.2	73.2	73.2	68	62.0	0	1	315	0.00	29.830 
11:35	73.5	73.5	73.5	70	63.1	0	2	315	0.00	29.830 
11:40	73.9	73.9	73.9	67	62.2	1	3	315	0.00	29.830 
11:45	73.3	73.3	73.3	66	61.2	1	3	315	0.00	29.832 
11:50	73.3	73.3	73.3	67	61.7	1	3	315	0.00	29.832 
11:55	73.7	73.7	73.7	66	61.6	1	3	292	0.00	29.832 
12:00	74.7	74.7	74.7	66	62.6	0	1	292	0.00	29.831 
12:05	75.4	75.4	77.4	65	62.8	1	3	292	0.00	29.831 
12:10	75.6	75.6	77.6	63	62.1	0	3	292	0.00	29.831 
12:15	75.1	75.1	77.2	64	62.1	1	3	292	0.00	29.829 
12:20	75.1	75.1	77.1	66	62.9	0	2	292	0.00	29.829 
12:25	75.3	75.3	77.5	62	61.4	1	3	292	0.00	29.829 
12:30	75.4	75.4	77.6	60	60.5	0	1	292	0.00	29.828 
12:35	76.1	76.1	78.1	61	61.7	0	2	292	0.00	29.828 
12:40	76.7	76.7	78.5	61	62.2	1	2	292	0.00	29.828 
12:45	76.5	76.5	78.4	61	62.0	0	3	292	0.00	29.825 
12:50	76.5	76.5	78.4	60	61.6	1	3	292	0.00	29.825 
12:55	77.0	77.0	78.8	63	63.4	1	3	292	0.00	29.825 
13:00	77.2	77.2	78.9	60	62.2	1	3	292	0.00	29.823 
13:05	77.0	77.0	78.8	60	62.0	1	3	292	0.00	29.823 
13:10	76.3	76.3	78.2	58	60.4	0	2	292	0.00	29.823 
13:15	76.0	76.0	78.0	60	61.1	0	3	292	0.00	29.822 
13:20	76.3	76.3	78.2	62	62.3	0	2	292	0.00	29.822 
13:25	76.5	76.5	78.3	63	62.9	1	3	292	0.00	29.822 
13:30	76.5	76.5	78.4	58	60.6	1	4	292	0.00	29.826 
13:35	76.7	76.7	78.5	59	61.3	0	1	292	0.00	29.826 
13:40	76.8	76.8	78.6	60	61.8	0	1	292	0.00	29.826 
13:45	76.7	76.7	78.5	60	61.7	0	1	292	0.00	29.826 
13:50	76.7	76.7	78.5	61	62.2	0	1	292	0.00	29.826 
13:55	76.7	76.7	78.5	61	62.2	0	2	292	0.00	29.826 
14:00	77.4	77.4	79.1	61	62.9	1	3	292	0.00	29.823 
14:05	77.6	77.6	79.3	59	62.1	0	3	292	0.00	29.823 
14:10	77.4	77.4	79.1	59	61.9	0	3	292	0.00	29.823 
14:15	77.2	77.2	79.0	61	62.7	0	1	292	0.00	29.817 
14:20	76.8	76.8	78.6	60	61.8	0	1	292	0.00	29.817 
14:25	76.5	76.5	78.4	61	62.0	1	4	90	0.00	29.817 
14:30	76.1	76.1	78.0	62	62.1	0	2	90	0.00	29.819 
14:35	76.0	76.0	78.0	61	61.6	0	2	90	0.00	29.819 
14:40	76.0	76.0	78.0	61	61.6	0	2	90	0.00	29.819 
14:45	75.8	75.8	77.8	62	61.8	0	2	90	0.00	29.818 
14:50	75.6	75.6	77.6	63	62.1	0	1	90	0.00	29.818 
14:55	75.6	75.6	77.6	63	62.1	0	2	90	0.00	29.818 
15:00	75.4	75.4	77.5	62	61.5	1	2	90	0.00	29.817 
15:05	75.6	75.6	77.7	62	61.6	0	2	90	0.00	29.817 
15:10	75.6	75.6	77.6	64	62.5	1	2	90	0.00	29.817 
15:15	75.6	75.6	77.6	63	62.1	0	1	90	0.00	29.814 
15:20	75.6	75.6	77.6	64	62.5	0	2	90	0.00	29.814 
15:25	75.6	75.6	77.5	65	63.0	1	2	90	0.00	29.814 
15:30	75.6	75.6	77.5	65	63.0	1	2	90	0.00	29.814 
15:35	75.6	75.6	77.6	64	62.5	0	2	90	0.00	29.814 
15:40	75.4	75.4	77.3	66	63.2	0	3	90	0.00	29.814 
15:45	75.4	75.4	77.4	65	62.8	0	1	90	0.00	29.804 
15:50	75.6	75.6	77.6	64	62.5	0	3	90	0.00	29.804 
15:55	75.8	75.8	77.7	65	63.2	1	2	90	0.00	29.804 
16:00	76.0	76.0	78.0	62	62.0	1	5	90	0.00	29.798 
16:05	76.3	76.3	78.2	64	63.2	0	3	90	0.00	29.798 
16:10	76.5	76.5	78.4	62	62.5	0	3	90	0.00	29.798 
16:15	76.3	76.3	78.2	62	62.3	0	3	292	0.00	29.798 
16:20	75.4	75.4	77.4	65	62.8	1	7	158	0.00	29.798 
16:25	73.3	73.3	73.3	67	61.7	1	7	68	0.00	29.798 
16:30	71.5	71.5	71.5	69	60.8	1	3	68	0.00	29.817 
16:35	70.4	70.4	70.4	70	60.1	0	2	68	0.00	29.817 
16:40	69.9	69.9	69.9	70	59.7	0	1	68	0.00	29.817 
16:45	69.8	69.8	69.8	70	59.6	0	1	68	0.00	29.812 
16:50	69.8	69.8	69.8	71	60.0	0	0	---	0.00	29.812 
16:55	69.4	69.4	69.4	75	61.1	0	0	---	0.02	29.812 
17:00	68.8	68.8	68.8	80	62.4	0	0	---	0.01	29.833 
17:05	68.1	68.1	68.1	82	62.4	0	1	68	0.02	29.833 
17:10	67.4	67.4	67.4	84	62.4	0	0	---	0.02	29.833 
17:15	67.3	67.3	67.3	87	63.3	0	0	---	0.01	29.836 
17:20	66.9	66.9	66.9	88	63.2	0	0	---	0.02	29.836 
17:25	66.4	66.4	66.4	89	63.1	0	0	---	0.01	29.836 
17:30	66.3	66.3	66.3	90	63.3	0	0	---	0.01	29.841 
17:35	66.1	66.1	66.1	90	63.1	0	0	---	0.01	29.841 
17:40	66.4	66.4	66.4	92	64.0	0	0	---	0.01	29.841 
17:45	66.4	66.4	66.4	92	64.0	0	0	---	0.01	29.840 
17:50	66.6	66.6	66.6	92	64.2	0	0	---	0.01	29.840 
17:55	66.6	66.6	66.6	92	64.2	0	0	---	0.00	29.840 
18:00	66.6	66.6	66.6	92	64.2	0	0	---	0.01	29.835 
18:05	66.6	66.6	66.6	92	64.2	0	0	---	0.01	29.835 
18:10	66.8	66.8	66.8	93	64.7	0	0	---	0.00	29.835 
18:15	66.9	66.9	66.9	93	64.8	0	0	---	0.01	29.825 
18:20	67.3	67.3	67.3	93	65.2	0	0	---	0.04	29.825 
18:25	67.4	67.4	67.4	93	65.3	0	0	---	0.00	29.825 
18:30	67.6	67.6	67.6	93	65.5	0	0	---	0.00	29.824 
18:35	67.8	67.8	67.8	93	65.7	0	0	---	0.10	29.824 
18:40	67.8	67.8	67.8	93	65.7	0	0	---	0.00	29.824 
18:45	67.9	67.9	67.9	94	66.1	0	0	---	0.00	29.831 
18:50	67.9	67.9	67.9	93	65.8	0	0	---	0.00	29.831 
18:55	67.9	67.9	67.9	94	66.1	0	0	---	0.00	29.831 
19:00	68.3	68.3	68.3	94	66.5	0	0	---	0.00	29.830 
19:05	68.4	68.4	68.4	94	66.6	0	0	---	0.00	29.830 
19:10	68.4	68.4	68.4	94	66.6	0	0	---	0.00	29.830 
19:15	68.6	68.6	68.6	94	66.8	0	0	---	0.00	29.823 
19:20	68.8	68.8	68.8	94	67.0	0	0	---	0.00	29.823 
19:25	68.9	68.9	68.9	94	67.1	0	0	---	0.00	29.823 
19:30	68.9	68.9	68.9	94	67.1	0	0	---	0.00	29.823 
19:35	69.1	69.1	69.1	94	67.3	0	0	---	0.00	29.823 
19:40	69.4	69.4	69.4	94	67.6	0	0	---	0.00	29.823 
19:45	69.3	69.3	69.3	94	67.5	0	0	---	0.00	29.826 
19:50	69.3	69.3	69.3	93	67.2	0	0	---	0.00	29.826 
19:55	69.3	69.3	69.3	93	67.2	0	0	---	0.00	29.826 
20:00	69.4	69.4	69.4	93	67.3	0	0	---	0.00	29.834 
20:05	69.6	69.6	69.6	93	67.5	0	0	---	0.00	29.834 
20:10	69.6	69.6	69.6	93	67.5	0	0	---	0.00	29.834 
20:15	69.6	69.6	69.6	93	67.5	0	0	---	0.00	29.830 
20:20	69.4	69.4	69.4	93	67.3	0	0	---	0.00	29.830 
20:25	69.3	69.3	69.3	93	67.2	0	0	---	0.00	29.830 
20:30	69.1	69.1	69.1	92	66.7	0	0	---	0.00	29.832 
20:35	68.8	68.8	68.8	92	66.4	0	0	---	0.00	29.832 
20:40	68.4	68.4	68.4	92	66.0	0	0	---	0.00	29.832 
20:45	68.1	68.1	68.1	92	65.7	0	0	---	0.00	29.831 
20:50	67.8	67.8	67.8	92	65.4	0	0	---	0.00	29.831 
20:55	67.6	67.6	67.6	92	65.2	0	0	---	0.00	29.831 
21:00	67.3	67.3	67.3	92	64.9	0	0	---	0.00	29.832 
21:05	67.1	67.1	67.1	92	64.7	0	0	---	0.00	29.832 
21:10	66.9	66.9	66.9	92	64.5	0	0	---	0.00	29.832 
21:15	66.8	66.8	66.8	92	64.4	0	0	---	0.00	29.831 
21:20	66.6	66.6	66.6	93	64.5	0	0	---	0.00	29.831 
21:25	66.3	66.3	66.3	93	64.2	0	0	---	0.00	29.831 
21:30	66.1	66.1	66.1	93	64.0	0	0	---	0.00	29.834 
21:35	65.8	65.8	65.8	93	63.7	0	0	---	0.00	29.834 
21:40	65.6	65.6	65.6	93	63.5	0	0	---	0.00	29.834 
21:45	65.5	65.5	65.5	93	63.4	0	0	---	0.00	29.838 
21:50	65.3	65.3	65.3	93	63.2	0	0	---	0.00	29.838 
21:55	65.3	65.3	65.3	93	63.2	0	0	---	0.00	29.838 
22:00	65.2	65.2	65.2	94	63.4	0	0	---	0.00	29.849 
22:05	65.0	65.0	65.0	94	63.2	0	0	---	0.00	29.849 
22:10	65.0	65.0	65.0	94	63.2	0	0	---	0.00	29.849 
22:15	64.8	64.8	64.8	94	63.0	0	0	---	0.00	29.848 
22:20	64.7	64.7	64.7	94	62.9	0	0	---	0.00	29.848 
22:25	64.5	64.5	64.5	94	62.7	0	0	---	0.00	29.848 
22:30	64.5	64.5	64.5	94	62.7	0	0	---	0.00	29.847 
22:35	64.3	64.3	64.3	94	62.5	0	0	---	0.00	29.847 
22:40	64.2	64.2	64.2	94	62.4	0	0	---	0.00	29.847 
22:45	64.2	64.2	64.2	94	62.4	0	0	---	0.00	29.857 
22:50	64.0	64.0	64.0	95	62.5	0	0	---	0.00	29.857 
22:55	64.0	64.0	64.0	95	62.5	0	0	---	0.00	29.857 
23:00	64.0	64.0	64.0	95	62.5	0	0	---	0.00	29.869 
23:05	63.9	63.9	63.9	95	62.4	0	0	---	0.00	29.869 
23:10	63.7	63.7	63.7	95	62.2	0	0	---	0.00	29.869 
23:15	63.5	63.5	63.5	95	62.0	0	0	---	0.00	29.855 
23:20	63.4	63.4	63.4	95	61.9	0	0	---	0.00	29.855 
23:25	63.4	63.4	63.4	95	61.9	0	0	---	0.00	29.855 
23:30	63.2	63.2	63.2	95	61.7	0	0	---	0.00	29.861 
23:35	63.2	63.2	63.2	95	61.7	0	0	---	0.00	29.861 
23:40	63.1	63.1	63.1	95	61.6	0	0	---	0.00	29.861 
23:45	62.9	62.9	62.9	95	61.4	0	0	---	0.00	29.865 
23:50	62.9	62.9	62.9	95	61.4	0	0	---	0.00	29.865 
23:55	62.7	62.7	62.7	95	61.2	0	0	---	0.00	29.865 

CoCoRaHS
IN-AL-39
A2 Web Hosting
Creative Commons License
GoDaddy
search engine by freefind advanced

loaded 2018-11-21 00:43:30 • last modified 2010-11-18 10:43:29
Privacy PolicyDisclaimer
• wx.awcolley.com is powered by PmWiki v.2002016 •
• all content (unless otherwise noted) © 2018 A W Colley